Time;durP1;ratioP1;P1;durP2;ratioP2;P2;SDS_P1;SDS_P2;PMS_P1;PMS_P2;Temp;Humidity;BMP_temperature;BMP_pressure;BME280_temperature;BME280_humidity;BME280_pressure;Samples;Min_cycle;Max_cycle;Signal;HPM_P1;HPM_P2
2023/05/12 00:02:11;;;;;;;12.25;7.82;;;10.90;89.30;;;;;;5075810;28;20020;-84
2023/05/12 00:04:39;;;;;;;12.98;8.18;;;11.00;89.50;;;;;;5074704;28;20020;-83
2023/05/12 00:07:05;;;;;;;17.88;8.23;;;11.00;89.50;;;;;;5075598;28;20064;-82
2023/05/12 00:09:32;;;;;;;13.80;7.20;;;10.90;89.50;;;;;;5075586;28;20021;-83
2023/05/12 00:11:58;;;;;;;11.02;7.20;;;11.00;89.60;;;;;;5075190;28;20812;-83
2023/05/12 00:14:24;;;;;;;10.13;8.07;;;10.90;89.70;;;;;;5078593;28;20017;-82
2023/05/12 00:16:50;;;;;;;10.60;7.95;;;10.90;89.90;;;;;;5086378;28;20024;-82
2023/05/12 00:19:20;;;;;;;10.67;7.23;;;10.90;89.90;;;;;;5082279;28;20020;-83
2023/05/12 00:21:46;;;;;;;16.15;7.40;;;10.90;90.00;;;;;;5077706;28;20025;-82
2023/05/12 00:24:13;;;;;;;14.93;8.15;;;10.90;90.00;;;;;;5089077;28;20024;-83
2023/05/12 00:26:39;;;;;;;11.07;8.40;;;10.90;89.90;;;;;;5081119;28;20059;-83
2023/05/12 00:29:05;;;;;;;22.70;13.38;;;10.90;89.70;;;;;;5081333;28;20020;-82
2023/05/12 00:31:31;;;;;;;11.00;7.50;;;10.90;89.80;;;;;;5078490;28;20042;-83
2023/05/12 00:33:57;;;;;;;14.90;8.88;;;10.90;89.70;;;;;;5074775;28;20021;-83
2023/05/12 00:36:23;;;;;;;16.90;7.53;;;10.90;89.70;;;;;;5082182;28;20089;-83
2023/05/12 00:38:49;;;;;;;15.40;7.30;;;10.90;89.70;;;;;;5093807;28;20032;-82
2023/05/12 00:41:15;;;;;;;8.50;7.30;;;10.90;89.90;;;;;;5063031;28;20040;-83
2023/05/12 00:43:41;;;;;;;14.20;7.25;;;10.80;89.80;;;;;;5074966;28;20363;-83
2023/05/12 00:46:08;;;;;;;12.20;7.72;;;10.80;89.90;;;;;;5074119;28;20020;-83
2023/05/12 00:48:35;;;;;;;13.80;7.60;;;10.70;89.80;;;;;;5077428;28;20052;-83
2023/05/12 00:51:03;;;;;;;11.48;7.78;;;10.70;89.80;;;;;;5075584;28;20016;-82
2023/05/12 00:53:30;;;;;;;12.82;7.20;;;10.70;90.00;;;;;;5073947;28;20024;-83
2023/05/12 00:55:56;;;;;;;10.77;7.50;;;10.60;90.00;;;;;;5073940;28;20059;-83
2023/05/12 00:58:23;;;;;;;8.82;6.80;;;10.60;90.00;;;;;;5071005;28;20064;-82
2023/05/12 01:00:49;;;;;;;11.15;7.28;;;10.60;90.10;;;;;;5072531;28;20032;-83
2023/05/12 01:03:16;;;;;;;9.73;7.38;;;10.60;90.10;;;;;;5068432;28;20024;-84
2023/05/12 01:05:53;;;;;;;12.93;6.80;;;10.60;90.10;;;;;;5075258;28;20020;-83
2023/05/12 01:08:20;;;;;;;17.48;7.15;;;10.60;90.20;;;;;;5074174;28;20024;-82
2023/05/12 01:10:47;;;;;;;12.38;8.13;;;10.50;90.30;;;;;;5074197;28;20017;-85
2023/05/12 01:13:13;;;;;;;18.45;9.60;;;10.50;90.40;;;;;;5091409;28;20054;-85
2023/05/12 01:15:45;;;;;;;10.60;8.48;;;10.50;90.30;;;;;;5075398;28;20064;-85
2023/05/12 01:18:13;;;;;;;12.48;7.78;;;10.40;90.30;;;;;;5070332;28;20036;-84
2023/05/12 01:20:42;;;;;;;14.52;7.88;;;10.50;90.30;;;;;;5058524;28;20017;-84
2023/05/12 01:23:10;;;;;;;9.00;6.68;;;10.40;90.20;;;;;;5067972;28;20383;-84
2023/05/12 01:25:38;;;;;;;8.10;6.60;;;10.40;90.20;;;;;;5066158;28;20099;-83
2023/05/12 01:28:04;;;;;;;14.35;7.93;;;10.40;90.20;;;;;;5073592;28;20195;-84
2023/05/12 01:30:31;;;;;;;10.10;7.88;;;10.40;90.50;;;;;;5069569;28;20424;-84
2023/05/12 01:32:57;;;;;;;14.10;6.55;;;10.40;90.30;;;;;;5084869;28;20021;-85
2023/05/12 01:35:23;;;;;;;11.68;6.70;;;10.40;90.30;;;;;;5076405;28;20029;-85
2023/05/12 01:37:50;;;;;;;11.35;6.85;;;10.40;90.20;;;;;;5076017;28;20028;-82
2023/05/12 01:40:16;;;;;;;10.73;7.20;;;10.40;90.20;;;;;;5074900;28;20028;-84
2023/05/12 01:42:42;;;;;;;11.20;7.68;;;10.40;90.10;;;;;;5085753;28;20350;-85
2023/05/12 01:45:09;;;;;;;11.98;7.22;;;10.30;90.10;;;;;;5071698;28;20028;-84
2023/05/12 01:47:35;;;;;;;15.25;7.90;;;10.40;90.10;;;;;;5072671;28;20047;-83
2023/05/12 01:50:01;;;;;;;12.93;7.07;;;10.30;90.10;;;;;;5081494;28;20024;-83
2023/05/12 01:52:27;;;;;;;15.05;7.55;;;10.40;90.20;;;;;;5073792;28;20016;-85
2023/05/12 01:54:53;;;;;;;9.35;7.32;;;10.40;90.20;;;;;;5072577;28;20025;-84
2023/05/12 01:57:19;;;;;;;8.27;6.63;;;10.40;90.10;;;;;;5076600;28;20071;-85
2023/05/12 01:59:45;;;;;;;8.48;6.57;;;10.40;90.20;;;;;;5075381;28;20088;-84
2023/05/12 02:02:11;;;;;;;9.48;6.70;;;10.40;89.60;;;;;;5074204;28;20032;-83
2023/05/12 02:04:37;;;;;;;11.82;6.95;;;10.50;89.50;;;;;;5074339;28;20016;-83
2023/05/12 02:07:03;;;;;;;11.90;7.18;;;10.50;89.30;;;;;;5073612;28;20048;-82
2023/05/12 02:09:29;;;;;;;10.02;6.72;;;10.50;89.10;;;;;;5072228;28;20016;-84
2023/05/12 02:11:54;;;;;;;11.93;5.93;;;10.60;89.10;;;;;;5071942;28;20044;-83
2023/05/12 02:14:20;;;;;;;11.45;7.15;;;10.60;88.80;;;;;;5071073;28;20025;-85
2023/05/12 02:16:51;;;;;;;11.18;6.85;;;10.60;88.60;;;;;;5082438;28;20032;-83
2023/05/12 02:19:20;;;;;;;9.52;6.85;;;10.70;88.40;;;;;;5085287;28;20055;-85
2023/05/12 02:21:47;;;;;;;11.00;6.65;;;10.70;88.00;;;;;;5075905;28;20362;-83
2023/05/12 02:24:13;;;;;;;10.30;6.23;;;10.80;87.80;;;;;;5080060;28;20059;-81
2023/05/12 02:26:39;;;;;;;8.20;6.18;;;10.80;87.80;;;;;;5089965;28;20028;-82
2023/05/12 02:29:05;;;;;;;9.75;6.63;;;10.80;87.70;;;;;;5094512;28;20039;-82
2023/05/12 02:31:31;;;;;;;12.02;5.80;;;10.90;87.20;;;;;;5079739;28;20024;-83
2023/05/12 02:33:57;;;;;;;10.52;5.93;;;10.90;86.90;;;;;;5073922;28;20154;-83
2023/05/12 02:36:23;;;;;;;7.57;6.05;;;11.00;86.40;;;;;;5073191;28;20031;-82
2023/05/12 02:38:49;;;;;;;9.75;5.57;;;11.10;86.10;;;;;;5070549;28;20037;-83
2023/05/12 02:41:15;;;;;;;12.60;5.72;;;11.20;85.60;;;;;;5056357;28;20021;-82
2023/05/12 02:43:41;;;;;;;10.70;5.60;;;11.40;84.90;;;;;;5072346;28;20112;-82
2023/05/12 02:46:07;;;;;;;8.02;6.15;;;11.60;84.30;;;;;;5072440;28;20095;-83
2023/05/12 02:48:33;;;;;;;9.27;5.82;;;11.70;83.60;;;;;;5071051;28;20025;-83
2023/05/12 02:50:58;;;;;;;9.50;6.22;;;11.70;83.40;;;;;;5070697;28;20445;-83
2023/05/12 02:53:25;;;;;;;12.63;6.57;;;11.90;82.80;;;;;;5072736;28;20074;-84
2023/05/12 02:55:52;;;;;;;12.10;5.78;;;12.00;83.00;;;;;;5071932;28;20017;-84
2023/05/12 02:58:17;;;;;;;9.68;6.13;;;12.10;82.00;;;;;;5071861;28;20044;-84
2023/05/12 03:00:43;;;;;;;8.90;6.05;;;12.10;81.70;;;;;;5070609;28;20020;-84
2023/05/12 03:03:09;;;;;;;16.10;6.40;;;12.20;81.20;;;;;;5070590;28;20016;-84
2023/05/12 03:05:35;;;;;;;9.65;6.22;;;12.30;80.80;;;;;;5072069;28;20099;-84
2023/05/12 03:08:01;;;;;;;11.70;6.35;;;12.40;80.50;;;;;;5081925;28;20028;-83
2023/05/12 03:10:27;;;;;;;13.93;6.20;;;12.50;80.10;;;;;;5077104;28;20016;-83
2023/05/12 03:12:53;;;;;;;12.68;6.32;;;12.80;80.20;;;;;;5075020;28;20032;-82
2023/05/12 03:15:19;;;;;;;8.60;6.40;;;13.10;79.10;;;;;;5079030;28;20043;-83
2023/05/12 03:17:49;;;;;;;10.25;6.32;;;13.30;78.30;;;;;;5075199;28;20029;-83
2023/05/12 03:20:15;;;;;;;15.60;6.75;;;13.60;77.50;;;;;;5076714;28;20504;-83
2023/05/12 03:22:41;;;;;;;10.93;6.78;;;13.80;75.70;;;;;;5076207;28;20033;-84
2023/05/12 03:25:09;;;;;;;12.60;6.85;;;14.00;74.20;;;;;;5074243;28;20016;-83
2023/05/12 03:27:34;;;;;;;9.00;6.50;;;14.00;73.70;;;;;;5081240;28;20051;-83
2023/05/12 03:30:01;;;;;;;10.20;7.28;;;14.00;73.20;;;;;;5081159;28;20032;-82
2023/05/12 03:32:29;;;;;;;15.82;7.32;;;14.00;72.90;;;;;;5080209;28;20095;-84
2023/05/12 03:34:55;;;;;;;8.15;5.97;;;13.90;73.20;;;;;;5069874;28;20017;-83
2023/05/12 03:37:22;;;;;;;11.95;6.60;;;14.00;72.90;;;;;;5077133;28;20161;-83
2023/05/12 03:39:48;;;;;;;9.07;6.95;;;14.00;72.80;;;;;;5065972;28;20024;-83
2023/05/12 03:42:14;;;;;;;8.43;6.40;;;14.00;72.80;;;;;;5070465;28;20027;-83
2023/05/12 03:44:40;;;;;;;9.27;6.88;;;14.10;72.30;;;;;;5082109;28;20545;-82
2023/05/12 03:47:06;;;;;;;9.80;7.68;;;14.20;71.50;;;;;;5098686;28;20084;-83
2023/05/12 03:49:32;;;;;;;11.63;7.25;;;14.30;71.10;;;;;;5096722;28;20031;-82
2023/05/12 03:51:58;;;;;;;11.30;6.78;;;14.30;70.90;;;;;;5096138;28;20115;-82
2023/05/12 03:54:24;;;;;;;11.75;7.80;;;14.30;71.30;;;;;;5083641;28;20067;-81
2023/05/12 03:56:52;;;;;;;19.98;7.47;;;14.40;70.80;;;;;;5074588;28;20086;-83
2023/05/12 03:59:17;;;;;;;10.20;7.28;;;14.40;70.40;;;;;;5074575;28;20041;-83
2023/05/12 04:01:43;;;;;;;11.48;7.38;;;14.40;70.00;;;;;;5077664;28;20539;-82
2023/05/12 04:04:09;;;;;;;8.82;6.45;;;14.40;69.80;;;;;;5075735;28;20047;-82
2023/05/12 04:06:35;;;;;;;11.75;7.15;;;14.40;69.80;;;;;;5075825;28;20048;-82
2023/05/12 04:09:01;;;;;;;12.85;7.63;;;14.40;69.80;;;;;;5075436;28;20550;-83
2023/05/12 04:11:27;;;;;;;10.25;7.75;;;14.50;69.50;;;;;;5080423;28;20028;-82
2023/05/12 04:13:54;;;;;;;17.83;8.13;;;14.50;68.90;;;;;;5079666;28;20032;-84
2023/05/12 04:16:20;;;;;;;13.35;7.35;;;14.60;69.00;;;;;;5077206;28;20488;-83
2023/05/12 04:18:46;;;;;;;12.93;8.30;;;14.60;68.80;;;;;;5075740;28;20029;-83
2023/05/12 04:21:13;;;;;;;11.57;7.32;;;14.70;68.50;;;;;;5074586;28;20496;-83
2023/05/12 04:23:39;;;;;;;10.63;6.95;;;14.80;68.20;;;;;;5083382;28;20027;-84
2023/05/12 04:26:05;;;;;;;12.85;7.53;;;14.80;67.50;;;;;;5085439;28;20039;-82
2023/05/12 04:28:31;;;;;;;10.73;7.75;;;14.90;67.80;;;;;;5079851;28;20044;-84
2023/05/12 04:31:04;;;;;;;13.52;7.95;;;14.90;67.60;;;;;;5068267;28;20040;-84
2023/05/12 04:33:30;;;;;;;15.43;7.90;;;15.00;67.40;;;;;;5070881;28;20017;-84
2023/05/12 04:35:56;;;;;;;15.20;9.30;;;15.10;66.90;;;;;;5075261;28;20034;-85
2023/05/12 04:38:22;;;;;;;10.32;8.23;;;15.10;67.30;;;;;;5074980;28;20032;-85
2023/05/12 04:40:48;;;;;;;12.85;8.15;;;15.20;66.40;;;;;;5060893;28;20183;-85
2023/05/12 04:43:14;;;;;;;11.05;8.50;;;15.20;66.30;;;;;;5074376;28;20032;-84
2023/05/12 04:45:40;;;;;;;13.07;8.45;;;15.30;66.00;;;;;;5073923;28;20017;-83
2023/05/12 04:48:06;;;;;;;12.68;8.55;;;15.40;65.70;;;;;;5074509;28;20092;-83
2023/05/12 04:50:34;;;;;;;14.95;8.32;;;15.50;66.30;;;;;;5076339;28;20493;-83
2023/05/12 04:53:00;;;;;;;15.80;9.05;;;15.60;65.70;;;;;;5073838;28;20027;-83
2023/05/12 04:55:26;;;;;;;15.25;8.23;;;15.70;65.60;;;;;;5076610;28;20013;-83
2023/05/12 04:57:52;;;;;;;12.68;8.73;;;16.00;65.20;;;;;;5085843;28;20016;-85
2023/05/12 05:00:18;;;;;;;15.05;9.10;;;16.10;64.80;;;;;;5078725;28;20044;-85
2023/05/12 05:02:44;;;;;;;15.98;10.00;;;16.30;64.30;;;;;;5077479;28;20044;-83
2023/05/12 05:05:10;;;;;;;14.50;8.73;;;16.90;64.10;;;;;;5075329;28;20039;-83
2023/05/12 05:07:36;;;;;;;15.52;8.60;;;17.90;61.80;;;;;;5074393;28;20089;-83
2023/05/12 05:10:02;;;;;;;13.20;8.20;;;19.10;59.60;;;;;;5075316;28;20012;-83
2023/05/12 05:12:28;;;;;;;17.55;9.20;;;20.30;55.90;;;;;;5070607;28;20605;-84
2023/05/12 05:14:54;;;;;;;11.50;8.73;;;21.00;52.40;;;;;;5070420;28;20028;-83
2023/05/12 05:17:20;;;;;;;13.63;7.70;;;21.50;51.20;;;;;;5074397;28;20174;-83
2023/05/12 05:19:46;;;;;;;11.38;8.38;;;22.10;49.60;;;;;;5080492;28;20055;-85
2023/05/12 05:22:12;;;;;;;14.55;8.55;;;22.60;48.00;;;;;;5065409;28;20025;-85
2023/05/12 05:24:38;;;;;;;18.67;8.57;;;23.10;46.40;;;;;;5076743;28;20029;-85
2023/05/12 05:27:04;;;;;;;12.05;8.02;;;23.50;45.50;;;;;;5074739;28;20029;-83
2023/05/12 05:29:30;;;;;;;19.52;8.15;;;23.80;45.10;;;;;;5073522;28;20416;-85
2023/05/12 05:31:56;;;;;;;14.55;7.60;;;24.40;44.40;;;;;;5071810;28;20021;-84
2023/05/12 05:34:21;;;;;;;22.63;8.98;;;24.90;43.20;;;;;;5073074;28;20021;-85
2023/05/12 05:36:47;;;;;;;15.50;7.75;;;25.20;42.50;;;;;;5073401;28;20039;-84
2023/05/12 05:39:13;;;;;;;13.45;8.57;;;25.40;42.10;;;;;;5074273;28;20024;-85
2023/05/12 05:41:39;;;;;;;13.38;8.93;;;25.70;41.50;;;;;;5067576;28;20021;-84
2023/05/12 05:44:05;;;;;;;18.38;8.95;;;26.10;40.70;;;;;;5075012;28;20108;-85
2023/05/12 05:46:31;;;;;;;16.55;8.75;;;26.40;40.10;;;;;;5078768;28;20024;-84
2023/05/12 05:48:57;;;;;;;14.02;8.88;;;26.80;39.70;;;;;;5093815;28;20023;-84
2023/05/12 05:51:23;;;;;;;16.92;8.90;;;27.40;39.00;;;;;;5086350;28;20087;-83
2023/05/12 05:53:49;;;;;;;16.05;8.80;;;27.90;38.30;;;;;;5073168;28;20025;-84
2023/05/12 05:56:14;;;;;;;12.02;8.48;;;28.60;37.50;;;;;;5072062;28;20443;-84
2023/05/12 05:58:40;;;;;;;17.17;9.07;;;29.00;36.80;;;;;;5068644;28;20033;-84
2023/05/12 06:01:06;;;;;;;18.75;8.82;;;;;;;;;;5067547;28;20021;-84
2023/05/12 06:03:33;;;;;;;15.27;8.67;;;;;;;;;;5059303;28;20024;-82
2023/05/12 06:05:59;;;;;;;13.32;8.73;;;29.30;36.50;;;;;;5087509;28;20456;-84
2023/05/12 06:08:25;;;;;;;15.48;8.30;;;31.40;34.70;;;;;;5063666;28;20504;-85
2023/05/12 06:10:52;;;;;;;15.00;9.00;;;31.90;34.00;;;;;;5073565;28;20092;-84
2023/05/12 06:13:18;;;;;;;14.65;8.35;;;32.10;33.90;;;;;;5082851;28;20390;-83
2023/05/12 06:15:47;;;;;;;18.92;8.82;;;32.10;33.50;;;;;;5067403;28;20037;-84
2023/05/12 06:18:13;;;;;;;17.42;8.32;;;33.00;33.10;;;;;;5078434;28;20032;-86
2023/05/12 06:20:38;;;;;;;20.07;8.00;;;33.80;32.20;;;;;;5074907;28;20085;-88
2023/05/12 06:23:05;;;;;;;18.87;9.30;;;34.20;31.60;;;;;;5073428;28;20040;-87
2023/05/12 06:25:32;;;;;;;16.60;8.65;;;34.30;31.30;;;;;;5085981;28;20044;-85
2023/05/12 06:27:58;;;;;;;16.83;8.45;;;34.10;31.10;;;;;;5091295;28;20035;-89
2023/05/12 06:30:23;;;;;;;17.37;7.97;;;34.10;31.30;;;;;;5082150;28;20024;-87
2023/05/12 06:32:50;;;;;;;13.97;9.07;;;34.40;31.20;;;;;;5087368;28;20043;-88
2023/05/12 06:35:16;;;;;;;14.85;8.20;;;34.40;30.80;;;;;;5086956;28;20036;-85
2023/05/12 06:37:43;;;;;;;16.27;7.40;;;34.40;30.40;;;;;;5092730;28;20084;-86
2023/05/12 06:40:09;;;;;;;19.05;6.80;;;34.40;29.80;;;;;;5083549;28;20051;-85
2023/05/12 06:42:35;;;;;;;16.10;7.40;;;34.20;29.90;;;;;;5071624;28;20469;-85
2023/05/12 06:45:02;;;;;;;12.87;6.50;;;34.30;29.40;;;;;;5077471;28;20029;-85
2023/05/12 06:47:28;;;;;;;12.18;6.97;;;34.70;29.80;;;;;;5074759;28;20171;-84
2023/05/12 06:49:54;;;;;;;19.63;6.40;;;34.90;29.20;;;;;;5073889;28;20083;-87
2023/05/12 06:52:22;;;;;;;8.77;5.23;;;35.30;28.40;;;;;;5072240;28;20111;-86
2023/05/12 06:54:49;;;;;;;10.23;6.20;;;35.20;28.00;;;;;;5087743;28;20077;-85
2023/05/12 06:57:14;;;;;;;12.85;6.53;;;35.20;28.30;;;;;;5072169;28;20152;-84
2023/05/12 06:59:40;;;;;;;11.47;7.43;;;;;;;;;;5070641;28;20120;-84
2023/05/12 07:02:07;;;;;;;8.75;6.05;;;;;;;;;;5076030;28;20021;-85
2023/05/12 07:04:34;;;;;;;15.23;7.47;;;35.50;28.50;;;;;;5076539;28;20415;-86
2023/05/12 07:07:00;;;;;;;11.75;7.07;;;;;;;;;;5078173;28;20086;-86
2023/05/12 07:09:26;;;;;;;13.07;6.63;;;37.00;27.70;;;;;;5090101;28;20027;-84
2023/05/12 07:11:53;;;;;;;6.23;4.43;;;;;;;;;;5079037;28;20373;-85
2023/05/12 07:14:19;;;;;;;8.43;3.53;;;37.50;27.40;;;;;;5078660;28;20265;-86
2023/05/12 07:16:45;;;;;;;6.27;4.00;;;37.20;26.10;;;;;;5077642;28;20020;-85
2023/05/12 07:19:11;;;;;;;9.27;4.47;;;37.10;26.10;;;;;;5078881;28;20674;-84
2023/05/12 07:21:37;;;;;;;9.07;3.50;;;37.00;26.10;;;;;;5075238;28;20028;-84
2023/05/12 07:24:05;;;;;;;10.13;3.80;;;37.20;26.40;;;;;;5076030;28;20025;-85
2023/05/12 07:26:31;;;;;;;7.70;3.45;;;37.20;25.90;;;;;;5075778;28;20065;-84
2023/05/12 07:28:59;;;;;;;10.57;3.53;;;37.10;26.30;;;;;;5075849;28;20139;-84
2023/05/12 07:31:25;;;;;;;8.00;4.28;;;37.20;26.10;;;;;;5076049;28;20115;-83
2023/05/12 07:33:51;;;;;;;8.80;4.38;;;37.50;26.10;;;;;;5076306;28;20026;-86
2023/05/12 07:36:17;;;;;;;4.32;2.75;;;37.20;26.50;;;;;;5077304;28;20035;-83
2023/05/12 07:38:43;;;;;;;8.32;3.72;;;37.40;25.60;;;;;;5079240;28;20115;-85
2023/05/12 07:41:09;;;;;;;11.60;3.30;;;38.10;25.60;;;;;;5080915;28;20094;-83
2023/05/12 07:43:35;;;;;;;10.25;3.45;;;38.70;25.40;;;;;;5068715;28;20478;-84
2023/05/12 07:46:01;;;;;;;5.47;2.88;;;39.30;25.20;;;;;;5081997;28;20028;-85
2023/05/12 07:48:27;;;;;;;10.50;3.35;;;38.30;24.90;;;;;;5076019;28;20077;-83
2023/05/12 07:50:53;;;;;;;6.20;2.65;;;38.10;25.20;;;;;;5077336;28;20103;-83
2023/05/12 07:53:19;;;;;;;7.45;2.33;;;38.50;24.30;;;;;;5074683;28;20043;-85
2023/05/12 07:55:45;;;;;;;10.57;2.50;;;38.20;24.50;;;;;;5076345;28;20465;-83
2023/05/12 07:58:11;;;;;;;8.45;2.83;;;38.20;24.70;;;;;;5075972;28;20024;-86
2023/05/12 08:00:37;;;;;;;;;;;37.90;24.20;;;;;;5076662;28;20024;-86
2023/05/12 08:03:05;;;;;;;;;;;37.50;24.80;;;;;;5085155;28;19905;-84
2023/05/12 08:05:31;;;;;;;6.30;2.60;;;36.70;25.10;;;;;;5077901;28;20427;-83
2023/05/12 08:07:57;;;;;;;8.30;2.75;;;36.40;24.50;;;;;;5089139;28;20124;-84
2023/05/12 08:10:28;;;;;;;6.67;2.50;;;36.30;24.40;;;;;;5082786;28;20040;-85
2023/05/12 08:12:54;;;;;;;4.75;2.58;;;35.40;24.40;;;;;;5075171;28;20051;-85
2023/05/12 08:15:20;;;;;;;5.60;2.75;;;35.40;24.70;;;;;;5078846;28;20443;-86
2023/05/12 08:17:46;;;;;;;4.63;2.70;;;35.50;24.90;;;;;;5082961;28;20119;-84
2023/05/12 08:20:12;;;;;;;5.85;2.75;;;35.40;24.50;;;;;;5073533;28;20024;-87
2023/05/12 08:22:38;;;;;;;10.05;2.80;;;35.10;24.70;;;;;;5075136;28;20423;-85
2023/05/12 08:25:05;;;;;;;6.93;3.20;;;34.70;24.90;;;;;;5074978;28;20092;-84
2023/05/12 08:27:31;;;;;;;6.18;2.65;;;34.20;25.10;;;;;;5082964;28;20016;-83
2023/05/12 08:29:57;;;;;;;5.53;2.80;;;34.30;25.70;;;;;;5093940;28;20027;-86
2023/05/12 08:32:24;;;;;;;8.25;2.85;;;35.30;25.50;;;;;;5082757;28;20269;-85
2023/05/12 08:34:49;;;;;;;;;;;36.40;24.60;;;;;;5084742;28;20029;-86
2023/05/12 08:37:15;;;;;;;;;;;36.90;25.30;;;;;;5075466;28;19950;-85
2023/05/12 08:39:41;;;;;;;4.07;2.92;;;37.40;25.40;;;;;;5076185;28;19962;-85
2023/05/12 08:42:28;;;;;;;3.25;2.00;;;38.90;23.40;;;;;;5075871;28;20060;-85
2023/05/12 08:44:55;;;;;;;2.72;1.80;;;38.90;24.00;;;;;;5090808;28;20088;-86
2023/05/12 08:47:24;;;;;;;4.57;2.35;;;39.20;23.60;;;;;;5080052;28;20105;-85
2023/05/12 08:49:59;;;;;;;5.13;2.58;;;39.40;24.00;;;;;;5079929;28;20020;-84
2023/05/12 08:52:26;;;;;;;5.10;2.22;;;39.40;23.90;;;;;;5081032;28;20100;-85
2023/05/12 08:54:52;;;;;;;3.53;2.70;;;39.40;23.60;;;;;;5074079;28;20062;-85
2023/05/12 08:57:21;;;;;;;7.00;3.65;;;40.00;23.80;;;;;;5074505;28;20093;-83
2023/05/12 08:59:47;;;;;;;4.47;3.00;;;40.10;23.60;;;;;;5072978;28;20029;-84
2023/05/12 09:02:16;;;;;;;4.55;2.08;;;39.50;23.20;;;;;;5084223;28;20110;-85
2023/05/12 09:04:42;;;;;;;4.07;2.72;;;38.60;23.30;;;;;;5084706;28;20025;-83
2023/05/12 09:07:09;;;;;;;;;;;38.10;23.70;;;;;;5088439;28;20044;-84
2023/05/12 09:09:37;;;;;;;7.05;3.25;;;37.90;24.20;;;;;;5091675;28;19908;-83
2023/05/12 09:12:06;;;;;;;7.40;3.17;;;38.00;24.10;;;;;;5081428;28;20013;-84
2023/05/12 09:14:35;;;;;;;6.40;2.83;;;38.20;23.80;;;;;;5074007;28;20024;-83
2023/05/12 09:17:03;;;;;;;7.50;2.90;;;37.90;23.90;;;;;;5076965;28;20024;-84
2023/05/12 09:19:30;;;;;;;5.07;2.40;;;38.30;23.80;;;;;;5075716;28;20065;-83
2023/05/12 09:21:56;;;;;;;5.38;2.70;;;38.50;23.80;;;;;;5075622;28;20100;-86
2023/05/12 09:24:34;;;;;;;5.85;2.30;;;39.40;23.70;;;;;;5071418;28;20444;-84
2023/05/12 09:27:00;;;;;;;9.25;2.42;;;39.20;23.70;;;;;;5073340;28;20016;-84
2023/05/12 09:29:26;;;;;;;5.50;2.88;;;39.40;23.50;;;;;;5073762;28;20383;-87
2023/05/12 09:31:53;;;;;;;;;;;39.40;23.50;;;;;;5089695;28;20051;-85
2023/05/12 09:34:25;;;;;;;8.35;2.97;;;39.00;23.70;;;;;;5067724;28;20003;-83
2023/05/12 09:36:56;;;;;;;8.20;3.33;;;36.80;23.70;;;;;;5069882;28;20485;-83
2023/05/12 09:39:22;;;;;;;3.90;3.08;;;34.50;25.20;;;;;;5076329;28;20108;-83
2023/05/12 09:41:48;;;;;;;6.30;3.80;;;32.90;25.60;;;;;;5076292;28;20021;-82
2023/05/12 09:44:15;;;;;;;3.83;3.00;;;31.80;26.20;;;;;;5097591;28;20028;-84
2023/05/12 09:46:41;;;;;;;10.23;4.28;;;30.50;26.50;;;;;;5088598;28;20470;-86
2023/05/12 09:49:07;;;;;;;8.80;3.55;;;29.60;27.10;;;;;;5079689;28;20031;-86
2023/05/12 09:51:33;;;;;;;6.77;3.37;;;28.60;27.70;;;;;;5060688;28;20017;-84
2023/05/12 09:53:59;;;;;;;5.05;3.35;;;27.80;28.10;;;;;;5074108;28;20267;-84
2023/05/12 09:56:31;;;;;;;5.40;3.33;;;27.10;28.70;;;;;;5079201;28;20020;-84
2023/05/12 09:58:57;;;;;;;5.72;3.00;;;26.50;28.80;;;;;;5090077;28;20033;-84
2023/05/12 10:01:24;;;;;;;5.32;3.20;;;26.10;29.20;;;;;;5090581;28;20012;-84
2023/05/12 10:03:51;;;;;;;;;;;25.80;29.30;;;;;;5094191;28;20031;-83
2023/05/12 10:06:29;;;;;;;6.05;3.17;;;25.60;29.00;;;;;;5075881;28;19916;-84
2023/05/12 10:09:07;;;;;;;4.30;3.22;;;26.60;29.90;;;;;;5073665;28;20036;-85
2023/05/12 10:11:34;;;;;;;5.97;3.30;;;28.50;28.90;;;;;;5073738;28;20021;-84
2023/05/12 10:14:00;;;;;;;7.40;3.28;;;28.40;28.90;;;;;;5074118;28;20016;-83
2023/05/12 10:16:27;;;;;;;5.45;3.30;;;27.30;28.50;;;;;;5073861;28;20085;-84
2023/05/12 10:18:54;;;;;;;9.30;4.15;;;27.00;29.40;;;;;;5075088;28;20070;-84
2023/05/12 10:21:20;;;;;;;;;;;28.00;29.00;;;;;;5082596;28;20077;-85
2023/05/12 10:23:47;;;;;;;5.23;3.47;;;28.70;28.50;;;;;;5072983;28;19904;-84
2023/05/12 10:26:15;;;;;;;4.80;3.33;;;28.70;28.60;;;;;;5072591;28;20060;-84
2023/05/12 10:28:41;;;;;;;7.25;3.10;;;28.40;28.30;;;;;;5070591;28;20137;-84
2023/05/12 10:31:09;;;;;;;7.70;3.28;;;28.00;28.60;;;;;;5072640;28;20028;-84
2023/05/12 10:33:35;;;;;;;5.28;2.88;;;27.50;28.40;;;;;;5071946;28;20045;-84
2023/05/12 10:36:01;;;;;;;7.88;5.18;;;27.00;28.70;;;;;;5074326;28;20111;-83
2023/05/12 10:38:35;;;;;;;5.63;3.55;;;26.40;29.00;;;;;;5075403;28;20120;-85
2023/05/12 10:41:04;;;;;;;5.38;2.97;;;26.30;29.50;;;;;;5062334;28;20016;-85
2023/05/12 10:43:43;;;;;;;7.70;3.67;;;26.30;29.90;;;;;;5078377;28;20465;-84
2023/05/12 10:46:19;;;;;;;4.82;2.90;;;26.20;29.60;;;;;;5077255;28;20104;-85
2023/05/12 10:48:54;;;;;;;9.25;3.22;;;25.90;29.80;;;;;;5077397;28;20080;-83
2023/05/12 10:51:21;;;;;;;7.93;3.50;;;;;;;;;;5076479;28;20017;-85
2023/05/12 10:53:51;;;;;;;4.82;3.30;;;;;;;;;;5068255;28;20442;-83
2023/05/12 10:56:28;;;;;;;5.10;3.53;;;25.60;30.30;;;;;;5078551;28;20032;-85
2023/05/12 10:59:21;;;;;;;6.22;4.03;;;24.60;30.90;;;;;;5081993;28;20032;-86
2023/05/12 11:02:05;;;;;;;4.70;3.45;;;24.00;31.10;;;;;;5079686;28;20093;-83
2023/05/12 11:04:40;;;;;;;7.30;4.25;;;23.60;31.70;;;;;;5079561;28;20090;-84
2023/05/12 11:07:08;;;;;;;9.45;5.35;;;23.10;32.50;;;;;;5076906;28;20055;-84
2023/05/12 11:09:42;;;;;;;11.48;5.22;;;22.90;32.80;;;;;;5058227;28;20550;-86
2023/05/12 11:12:09;;;;;;;7.40;3.88;;;22.90;33.10;;;;;;5073927;28;20036;-85
2023/05/12 11:14:37;;;;;;;10.25;3.22;;;23.00;33.20;;;;;;5074574;28;20028;-85
2023/05/12 11:17:03;;;;;;;7.03;3.40;;;23.10;32.80;;;;;;5085279;28;20078;-85
2023/05/12 11:19:30;;;;;;;5.93;3.17;;;23.30;32.80;;;;;;5076736;28;20041;-84
2023/05/12 11:21:56;;;;;;;9.00;2.95;;;23.50;32.20;;;;;;5075013;28;20023;-85
2023/05/12 11:24:22;;;;;;;5.38;3.17;;;23.60;32.20;;;;;;5076466;28;20029;-83
2023/05/12 11:26:51;;;;;;;3.70;2.90;;;23.60;31.80;;;;;;5074884;28;20020;-86
2023/05/12 11:29:20;;;;;;;8.48;3.30;;;23.60;31.60;;;;;;5075874;28;20027;-84
2023/05/12 11:31:50;;;;;;;6.50;3.38;;;23.50;32.00;;;;;;5077795;28;20024;-83
2023/05/12 11:34:21;;;;;;;11.65;7.50;;;23.50;32.10;;;;;;5077363;28;20016;-83
2023/05/12 11:36:47;;;;;;;5.80;3.10;;;23.50;31.50;;;;;;5075475;28;20024;-85
2023/05/12 11:39:20;;;;;;;7.60;3.47;;;23.40;32.10;;;;;;5072714;28;20056;-83
2023/05/12 11:41:47;;;;;;;5.03;3.40;;;23.30;31.70;;;;;;5064828;28;20017;-84
2023/05/12 11:44:23;;;;;;;4.57;3.20;;;23.30;32.10;;;;;;5089687;28;20105;-84
2023/05/12 11:46:58;;;;;;;11.50;3.13;;;23.20;31.80;;;;;;5079122;28;20033;-87
2023/05/12 11:49:26;;;;;;;6.78;2.88;;;23.10;32.30;;;;;;5075682;28;20033;-86
2023/05/12 11:51:54;;;;;;;8.85;2.92;;;23.10;32.70;;;;;;5076782;28;20023;-83
2023/05/12 11:54:21;;;;;;;8.70;3.33;;;23.10;32.10;;;;;;5085503;28;20072;-85
2023/05/12 11:56:51;;;;;;;5.38;2.83;;;23.10;32.00;;;;;;5090973;28;20046;-83
2023/05/12 11:59:34;;;;;;;7.25;3.58;;;23.00;32.30;;;;;;5069656;28;20072;-86
2023/05/12 12:02:01;;;;;;;8.50;3.85;;;23.10;32.80;;;;;;5076218;28;20096;-84
2023/05/12 12:04:35;;;;;;;5.72;3.13;;;23.30;32.50;;;;;;5088924;28;20028;-85
2023/05/12 12:07:06;;;;;;;6.43;3.40;;;23.30;32.30;;;;;;5074133;28;20036;-83
2023/05/12 12:09:40;;;;;;;5.50;2.97;;;23.30;32.50;;;;;;5074713;28;20424;-84
2023/05/12 12:12:08;;;;;;;8.05;3.45;;;23.30;32.60;;;;;;5075623;28;20546;-85
2023/05/12 12:14:36;;;;;;;4.28;2.63;;;23.30;32.50;;;;;;5075895;28;20027;-84
2023/05/12 12:17:03;;;;;;;7.63;2.83;;;23.30;32.30;;;;;;5075003;28;20055;-83
2023/05/12 12:19:29;;;;;;;8.73;4.47;;;23.20;32.10;;;;;;5077228;28;20033;-83
2023/05/12 12:21:56;;;;;;;18.42;5.70;;;23.10;32.50;;;;;;5066880;28;20052;-84
2023/05/12 12:24:23;;;;;;;6.53;3.28;;;22.90;32.60;;;;;;5078608;28;20028;-84
2023/05/12 12:26:49;;;;;;;9.90;4.30;;;22.80;32.60;;;;;;5089032;28;20039;-83
2023/05/12 12:29:16;;;;;;;5.35;2.78;;;22.80;32.90;;;;;;5095848;28;20059;-85
2023/05/12 12:31:42;;;;;;;7.97;2.83;;;22.60;33.00;;;;;;5080609;28;20452;-83
2023/05/12 12:34:08;;;;;;;8.23;3.15;;;22.60;32.80;;;;;;5078621;28;20018;-85
2023/05/12 12:36:34;;;;;;;9.50;3.53;;;22.60;33.10;;;;;;5078802;28;20024;-84
2023/05/12 12:39:01;;;;;;;6.40;2.78;;;22.50;33.10;;;;;;5076197;28;20033;-85
2023/05/12 12:41:27;;;;;;;8.15;3.20;;;22.40;33.30;;;;;;5065261;28;20079;-83
2023/05/12 12:43:54;;;;;;;8.48;3.97;;;22.40;33.40;;;;;;5094094;28;20059;-84
2023/05/12 12:46:20;;;;;;;5.75;3.53;;;22.40;33.60;;;;;;5078152;28;20017;-82